TTPP Airport Information

Runway Information
Runway 10 Length 10500 ft width 150 ft
Elevation 30 ft Threshold 0 ft Heading 90
Runway 28 Length 10500 ft Width 150 ft
Elevation 58 ft Threshold 0 ft Heading 270
Airport Frequencies
Type ACC Name ACC Frequency 123.7 MHZ
Type APP Name APP Frequency 119 MHZ
Type ATIS Name ATIS Frequency 126.7 MHZ
Type GND Name GND Frequency 121.9 MHZ
Type MISC Name APRON Frequency 121.75 MHZ
Type RDO Name RDO Frequency 552.6 MHZ
Type TWR Name TWR Frequency 118.1 MHZ
Airport Navaids
Type VOR-DME Name Piarco Frequency 116900 KHZ
Type NDB Name Piarco Frequency 382 KHZ
Airport Weather Information & NOTAM
ADDS - METARS form results

(2232 UTC 20 June 2018)
 
METAR text: TTPP 202200Z 12007KT 9999 FEW016 28/24 Q1014 NOSIG
Conditions at: TTPP (PIARCO INT AIRPT, TT) observed 2200 UTC 20 June 2018
Temperature: 28.0°C (82°F)
Dewpoint: 24.0°C (75°F) [RH = 79%]
Pressure (altimeter): 29.94 inches Hg (1014.0 mb)
Winds: from the ESE (120 degrees) at 8 MPH (7 knots; 3.6 m/s)
Visibility: 6 or more miles (10+ km)
Ceiling: at least 12,000 feet AGL
Clouds: few clouds at 1600 feet AGL
Weather: no significant weather observed at this time